sensor_id;sensor_type;location;lat;lon;timestamp;temperature;humidity
37528;DHT22;23372;52.050;4.810;2023-03-31T00:00:24;9.60;99.90
37528;DHT22;23372;52.050;4.810;2023-03-31T00:02:50;9.40;99.90
37528;DHT22;23372;52.050;4.810;2023-03-31T00:05:19;9.40;99.90
37528;DHT22;23372;52.050;4.810;2023-03-31T00:07:46;9.40;99.90
37528;DHT22;23372;52.050;4.810;2023-03-31T00:10:13;9.50;99.90
37528;DHT22;23372;52.050;4.810;2023-03-31T00:12:39;9.50;99.90
37528;DHT22;23372;52.050;4.810;2023-03-31T00:15:05;9.60;99.90
37528;DHT22;23372;52.050;4.810;2023-03-31T00:17:31;9.60;99.90
37528;DHT22;23372;52.050;4.810;2023-03-31T00:19:58;9.60;99.90
37528;DHT22;23372;52.050;4.810;2023-03-31T00:22:25;9.70;99.90
37528;DHT22;23372;52.050;4.810;2023-03-31T00:24:54;9.70;99.90
37528;DHT22;23372;52.050;4.810;2023-03-31T00:27:19;9.70;99.90
37528;DHT22;23372;52.050;4.810;2023-03-31T00:29:45;9.70;99.90
37528;DHT22;23372;52.050;4.810;2023-03-31T00:32:13;9.80;99.90
37528;DHT22;23372;52.050;4.810;2023-03-31T00:34:39;9.90;99.90
37528;DHT22;23372;52.050;4.810;2023-03-31T00:37:05;10.00;99.90
37528;DHT22;23372;52.050;4.810;2023-03-31T00:39:34;10.10;99.90
37528;DHT22;23372;52.050;4.810;2023-03-31T00:42:02;10.10;99.90
37528;DHT22;23372;52.050;4.810;2023-03-31T00:44:29;10.20;99.90
37528;DHT22;23372;52.050;4.810;2023-03-31T00:47:04;10.20;99.90
37528;DHT22;23372;52.050;4.810;2023-03-31T00:49:38;10.20;99.90
37528;DHT22;23372;52.050;4.810;2023-03-31T00:52:09;10.30;99.90
37528;DHT22;23372;52.050;4.810;2023-03-31T00:54:39;10.30;99.90
37528;DHT22;23372;52.050;4.810;2023-03-31T00:57:07;10.40;99.90
37528;DHT22;23372;52.050;4.810;2023-03-31T00:59:39;10.40;99.90
37528;DHT22;23372;52.050;4.810;2023-03-31T01:02:05;10.50;99.90
37528;DHT22;23372;52.050;4.810;2023-03-31T01:04:34;10.50;99.90
37528;DHT22;23372;52.050;4.810;2023-03-31T01:07:17;10.60;99.90
37528;DHT22;23372;52.050;4.810;2023-03-31T01:09:44;10.70;99.90
37528;DHT22;23372;52.050;4.810;2023-03-31T01:12:13;10.70;99.90
37528;DHT22;23372;52.050;4.810;2023-03-31T01:14:39;10.70;99.90
37528;DHT22;23372;52.050;4.810;2023-03-31T01:17:05;10.70;99.90
37528;DHT22;23372;52.050;4.810;2023-03-31T01:39:25;10.90;99.90
37528;DHT22;23372;52.050;4.810;2023-03-31T01:47:51;11.00;99.90
37528;DHT22;23372;52.050;4.810;2023-03-31T01:50:33;11.00;99.90
37528;DHT22;23372;52.050;4.810;2023-03-31T01:53:13;11.00;99.90
37528;DHT22;23372;52.050;4.810;2023-03-31T01:58:19;11.00;99.90
37528;DHT22;23372;52.050;4.810;2023-03-31T02:01:00;11.00;99.90
37528;DHT22;23372;52.050;4.810;2023-03-31T02:03:32;11.00;99.90
37528;DHT22;23372;52.050;4.810;2023-03-31T02:06:04;11.00;99.90
37528;DHT22;23372;52.050;4.810;2023-03-31T02:08:49;11.00;99.90
37528;DHT22;23372;52.050;4.810;2023-03-31T02:11:18;11.00;99.90
37528;DHT22;23372;52.050;4.810;2023-03-31T02:13:46;10.90;99.90
37528;DHT22;23372;52.050;4.810;2023-03-31T02:16:16;10.90;99.90
37528;DHT22;23372;52.050;4.810;2023-03-31T02:18:45;10.90;99.90
37528;DHT22;23372;52.050;4.810;2023-03-31T02:21:12;11.00;99.90
37528;DHT22;23372;52.050;4.810;2023-03-31T02:23:39;10.90;99.90
37528;DHT22;23372;52.050;4.810;2023-03-31T02:26:26;10.90;99.90
37528;DHT22;23372;52.050;4.810;2023-03-31T02:28:53;10.90;99.90
37528;DHT22;23372;52.050;4.810;2023-03-31T02:31:41;10.80;99.90
37528;DHT22;23372;52.050;4.810;2023-03-31T02:34:09;10.70;99.90
37528;DHT22;23372;52.050;4.810;2023-03-31T02:36:35;10.60;99.90
37528;DHT22;23372;52.050;4.810;2023-03-31T02:39:07;10.60;99.90
37528;DHT22;23372;52.050;4.810;2023-03-31T02:41:33;10.60;99.90
37528;DHT22;23372;52.050;4.810;2023-03-31T02:44:00;10.60;99.90
37528;DHT22;23372;52.050;4.810;2023-03-31T02:46:26;10.60;99.90
37528;DHT22;23372;52.050;4.810;2023-03-31T02:48:55;10.60;99.90
37528;DHT22;23372;52.050;4.810;2023-03-31T02:54:37;10.60;99.90
37528;DHT22;23372;52.050;4.810;2023-03-31T03:02:47;10.60;99.90
37528;DHT22;23372;52.050;4.810;2023-03-31T03:16:27;10.60;99.90
37528;DHT22;23372;52.050;4.810;2023-03-31T03:18:58;10.60;99.90
37528;DHT22;23372;52.050;4.810;2023-03-31T03:21:25;10.50;99.90
37528;DHT22;23372;52.050;4.810;2023-03-31T03:23:50;10.50;99.90
37528;DHT22;23372;52.050;4.810;2023-03-31T03:26:18;10.50;99.90
37528;DHT22;23372;52.050;4.810;2023-03-31T03:28:50;10.40;99.90
37528;DHT22;23372;52.050;4.810;2023-03-31T03:31:16;10.50;99.90
37528;DHT22;23372;52.050;4.810;2023-03-31T03:33:42;10.40;99.90
37528;DHT22;23372;52.050;4.810;2023-03-31T03:36:08;10.50;99.90
37528;DHT22;23372;52.050;4.810;2023-03-31T03:38:33;10.50;99.90
37528;DHT22;23372;52.050;4.810;2023-03-31T03:40:59;10.40;99.90
37528;DHT22;23372;52.050;4.810;2023-03-31T03:43:25;10.40;99.90
37528;DHT22;23372;52.050;4.810;2023-03-31T03:45:51;10.40;99.90
37528;DHT22;23372;52.050;4.810;2023-03-31T03:48:17;10.40;99.90
37528;DHT22;23372;52.050;4.810;2023-03-31T03:50:44;10.40;99.90
37528;DHT22;23372;52.050;4.810;2023-03-31T03:53:10;10.40;99.90
37528;DHT22;23372;52.050;4.810;2023-03-31T03:55:35;10.40;99.90
37528;DHT22;23372;52.050;4.810;2023-03-31T03:58:01;10.40;99.90
37528;DHT22;23372;52.050;4.810;2023-03-31T04:00:27;10.30;99.90
37528;DHT22;23372;52.050;4.810;2023-03-31T04:02:52;10.30;99.90
37528;DHT22;23372;52.050;4.810;2023-03-31T04:05:21;10.30;99.90
37528;DHT22;23372;52.050;4.810;2023-03-31T04:07:46;10.30;99.90
37528;DHT22;23372;52.050;4.810;2023-03-31T04:10:12;10.30;99.90
37528;DHT22;23372;52.050;4.810;2023-03-31T04:12:37;10.40;99.90
37528;DHT22;23372;52.050;4.810;2023-03-31T04:15:04;10.40;99.90
37528;DHT22;23372;52.050;4.810;2023-03-31T04:17:29;10.40;99.90
37528;DHT22;23372;52.050;4.810;2023-03-31T04:20:05;10.40;99.90
37528;DHT22;23372;52.050;4.810;2023-03-31T04:22:32;10.40;99.90
37528;DHT22;23372;52.050;4.810;2023-03-31T04:25:06;10.40;99.90
37528;DHT22;23372;52.050;4.810;2023-03-31T04:27:45;10.40;99.90
37528;DHT22;23372;52.050;4.810;2023-03-31T04:30:15;10.40;99.90
37528;DHT22;23372;52.050;4.810;2023-03-31T04:32:48;10.30;99.90
37528;DHT22;23372;52.050;4.810;2023-03-31T04:35:15;10.30;99.90
37528;DHT22;23372;52.050;4.810;2023-03-31T04:37:43;10.40;99.90
37528;DHT22;23372;52.050;4.810;2023-03-31T04:40:09;10.40;99.90
37528;DHT22;23372;52.050;4.810;2023-03-31T04:42:35;10.30;99.90
37528;DHT22;23372;52.050;4.810;2023-03-31T04:45:01;10.30;99.90
37528;DHT22;23372;52.050;4.810;2023-03-31T04:47:26;10.40;99.90
37528;DHT22;23372;52.050;4.810;2023-03-31T04:49:52;10.30;99.90
37528;DHT22;23372;52.050;4.810;2023-03-31T04:52:18;10.30;99.90
37528;DHT22;23372;52.050;4.810;2023-03-31T04:54:43;10.40;99.90
37528;DHT22;23372;52.050;4.810;2023-03-31T04:57:09;10.40;99.90
37528;DHT22;23372;52.050;4.810;2023-03-31T04:59:35;10.30;99.90
37528;DHT22;23372;52.050;4.810;2023-03-31T05:02:01;10.30;99.90
37528;DHT22;23372;52.050;4.810;2023-03-31T05:04:26;10.30;99.90
37528;DHT22;23372;52.050;4.810;2023-03-31T05:06:52;10.40;99.90
37528;DHT22;23372;52.050;4.810;2023-03-31T05:09:18;10.40;99.90
37528;DHT22;23372;52.050;4.810;2023-03-31T05:11:44;10.30;99.90
37528;DHT22;23372;52.050;4.810;2023-03-31T05:14:10;10.30;99.90
37528;DHT22;23372;52.050;4.810;2023-03-31T05:16:36;10.40;99.90
37528;DHT22;23372;52.050;4.810;2023-03-31T05:19:02;10.30;99.90
37528;DHT22;23372;52.050;4.810;2023-03-31T05:21:27;10.40;99.90
37528;DHT22;23372;52.050;4.810;2023-03-31T05:23:55;10.30;99.90
37528;DHT22;23372;52.050;4.810;2023-03-31T05:26:21;10.30;99.90
37528;DHT22;23372;52.050;4.810;2023-03-31T05:28:50;10.40;99.90
37528;DHT22;23372;52.050;4.810;2023-03-31T05:31:16;10.30;99.90
37528;DHT22;23372;52.050;4.810;2023-03-31T05:33:42;10.30;99.90
37528;DHT22;23372;52.050;4.810;2023-03-31T05:36:10;10.40;99.90
37528;DHT22;23372;52.050;4.810;2023-03-31T05:38:39;10.30;99.90
37528;DHT22;23372;52.050;4.810;2023-03-31T05:41:05;10.30;99.90
37528;DHT22;23372;52.050;4.810;2023-03-31T05:43:32;10.30;99.90
37528;DHT22;23372;52.050;4.810;2023-03-31T05:45:58;10.40;99.90
37528;DHT22;23372;52.050;4.810;2023-03-31T05:48:24;10.30;99.90
37528;DHT22;23372;52.050;4.810;2023-03-31T05:50:49;10.30;99.90
37528;DHT22;23372;52.050;4.810;2023-03-31T05:53:15;10.30;99.90
37528;DHT22;23372;52.050;4.810;2023-03-31T05:55:40;10.30;99.90
37528;DHT22;23372;52.050;4.810;2023-03-31T05:58:06;10.30;99.90
37528;DHT22;23372;52.050;4.810;2023-03-31T06:00:34;10.40;99.90
37528;DHT22;23372;52.050;4.810;2023-03-31T06:03:00;10.30;99.90
37528;DHT22;23372;52.050;4.810;2023-03-31T06:05:26;10.30;99.90
37528;DHT22;23372;52.050;4.810;2023-03-31T06:07:52;10.40;99.90
37528;DHT22;23372;52.050;4.810;2023-03-31T06:10:18;10.40;99.90
37528;DHT22;23372;52.050;4.810;2023-03-31T06:12:44;10.40;99.90
37528;DHT22;23372;52.050;4.810;2023-03-31T06:15:10;10.30;99.90
37528;DHT22;23372;52.050;4.810;2023-03-31T06:17:36;10.30;99.90
37528;DHT22;23372;52.050;4.810;2023-03-31T06:20:01;10.40;99.90
37528;DHT22;23372;52.050;4.810;2023-03-31T06:22:28;10.40;99.90
37528;DHT22;23372;52.050;4.810;2023-03-31T06:24:54;10.40;99.90
37528;DHT22;23372;52.050;4.810;2023-03-31T06:27:19;10.40;99.90
37528;DHT22;23372;52.050;4.810;2023-03-31T06:29:45;10.40;99.90
37528;DHT22;23372;52.050;4.810;2023-03-31T06:32:11;10.40;99.90
37528;DHT22;23372;52.050;4.810;2023-03-31T06:34:36;10.40;99.90
37528;DHT22;23372;52.050;4.810;2023-03-31T06:37:02;10.40;99.90
37528;DHT22;23372;52.050;4.810;2023-03-31T06:39:27;10.40;99.90
37528;DHT22;23372;52.050;4.810;2023-03-31T06:41:53;10.40;99.90
37528;DHT22;23372;52.050;4.810;2023-03-31T06:44:18;10.40;99.90
37528;DHT22;23372;52.050;4.810;2023-03-31T06:46:47;10.40;99.90
37528;DHT22;23372;52.050;4.810;2023-03-31T06:49:13;10.40;99.90
37528;DHT22;23372;52.050;4.810;2023-03-31T06:51:39;10.40;99.90
37528;DHT22;23372;52.050;4.810;2023-03-31T06:54:04;10.40;99.90
37528;DHT22;23372;52.050;4.810;2023-03-31T06:56:30;10.40;99.90
37528;DHT22;23372;52.050;4.810;2023-03-31T06:58:56;10.40;99.90
37528;DHT22;23372;52.050;4.810;2023-03-31T07:01:21;10.40;99.90
37528;DHT22;23372;52.050;4.810;2023-03-31T07:03:47;10.40;99.90
37528;DHT22;23372;52.050;4.810;2023-03-31T07:06:13;10.40;99.90
37528;DHT22;23372;52.050;4.810;2023-03-31T07:08:38;10.40;99.90
37528;DHT22;23372;52.050;4.810;2023-03-31T07:11:04;10.40;99.90
37528;DHT22;23372;52.050;4.810;2023-03-31T07:13:30;10.40;99.90
37528;DHT22;23372;52.050;4.810;2023-03-31T07:15:55;10.50;99.90
37528;DHT22;23372;52.050;4.810;2023-03-31T07:18:22;10.50;99.90
37528;DHT22;23372;52.050;4.810;2023-03-31T07:20:57;10.60;99.90
37528;DHT22;23372;52.050;4.810;2023-03-31T07:23:23;10.60;99.90
37528;DHT22;23372;52.050;4.810;2023-03-31T07:25:49;10.60;99.90
37528;DHT22;23372;52.050;4.810;2023-03-31T07:28:15;10.60;99.90
37528;DHT22;23372;52.050;4.810;2023-03-31T07:30:41;10.70;99.90
37528;DHT22;23372;52.050;4.810;2023-03-31T07:33:07;10.60;99.90
37528;DHT22;23372;52.050;4.810;2023-03-31T07:35:32;10.70;99.90
37528;DHT22;23372;52.050;4.810;2023-03-31T07:37:58;10.70;99.90
37528;DHT22;23372;52.050;4.810;2023-03-31T07:40:26;10.70;99.90
37528;DHT22;23372;52.050;4.810;2023-03-31T07:42:52;10.70;99.90
37528;DHT22;23372;52.050;4.810;2023-03-31T07:45:19;10.80;99.90
37528;DHT22;23372;52.050;4.810;2023-03-31T07:47:46;10.90;99.90
37528;DHT22;23372;52.050;4.810;2023-03-31T07:50:13;11.10;99.90
37528;DHT22;23372;52.050;4.810;2023-03-31T07:52:40;11.30;99.90
37528;DHT22;23372;52.050;4.810;2023-03-31T07:55:06;11.30;99.90
37528;DHT22;23372;52.050;4.810;2023-03-31T07:57:33;11.40;99.90
37528;DHT22;23372;52.050;4.810;2023-03-31T07:59:58;11.50;99.90
37528;DHT22;23372;52.050;4.810;2023-03-31T08:02:24;11.50;99.90
37528;DHT22;23372;52.050;4.810;2023-03-31T08:04:50;11.60;99.90
37528;DHT22;23372;52.050;4.810;2023-03-31T08:07:15;11.60;99.90
37528;DHT22;23372;52.050;4.810;2023-03-31T08:09:43;11.60;99.90
37528;DHT22;23372;52.050;4.810;2023-03-31T08:12:10;11.60;99.90
37528;DHT22;23372;52.050;4.810;2023-03-31T08:14:35;11.60;99.90
37528;DHT22;23372;52.050;4.810;2023-03-31T08:17:01;11.60;99.90
37528;DHT22;23372;52.050;4.810;2023-03-31T08:19:27;11.50;99.90
37528;DHT22;23372;52.050;4.810;2023-03-31T08:21:53;11.50;99.90
37528;DHT22;23372;52.050;4.810;2023-03-31T08:24:19;11.40;99.90
37528;DHT22;23372;52.050;4.810;2023-03-31T08:26:45;11.40;99.90
37528;DHT22;23372;52.050;4.810;2023-03-31T08:29:11;11.30;99.90
37528;DHT22;23372;52.050;4.810;2023-03-31T08:31:36;11.30;99.90
37528;DHT22;23372;52.050;4.810;2023-03-31T08:34:02;11.30;99.90
37528;DHT22;23372;52.050;4.810;2023-03-31T08:36:28;11.20;99.90
37528;DHT22;23372;52.050;4.810;2023-03-31T08:38:54;11.20;99.90
37528;DHT22;23372;52.050;4.810;2023-03-31T08:41:41;11.20;99.90
37528;DHT22;23372;52.050;4.810;2023-03-31T08:47:02;11.20;99.90
37528;DHT22;23372;52.050;4.810;2023-03-31T08:49:39;11.30;99.90
37528;DHT22;23372;52.050;4.810;2023-03-31T08:52:18;11.40;99.90
37528;DHT22;23372;52.050;4.810;2023-03-31T08:54:49;11.70;99.90
37528;DHT22;23372;52.050;4.810;2023-03-31T08:57:19;11.80;99.90
37528;DHT22;23372;52.050;4.810;2023-03-31T08:59:46;12.20;99.90
37528;DHT22;23372;52.050;4.810;2023-03-31T09:02:35;12.70;99.90
37528;DHT22;23372;52.050;4.810;2023-03-31T09:05:47;12.60;99.90
37528;DHT22;23372;52.050;4.810;2023-03-31T09:18:59;13.30;99.90
37528;DHT22;23372;52.050;4.810;2023-03-31T09:21:29;13.60;99.90
37528;DHT22;23372;52.050;4.810;2023-03-31T09:24:18;13.80;99.90
37528;DHT22;23372;52.050;4.810;2023-03-31T09:26:50;14.00;99.90
37528;DHT22;23372;52.050;4.810;2023-03-31T09:29:27;14.00;99.90
37528;DHT22;23372;52.050;4.810;2023-03-31T09:32:00;13.50;99.90
37528;DHT22;23372;52.050;4.810;2023-03-31T09:34:29;13.20;99.90
37528;DHT22;23372;52.050;4.810;2023-03-31T09:37:04;13.00;99.90
37528;DHT22;23372;52.050;4.810;2023-03-31T09:39:30;12.90;99.90
37528;DHT22;23372;52.050;4.810;2023-03-31T09:41:56;12.90;99.90
37528;DHT22;23372;52.050;4.810;2023-03-31T09:44:36;12.70;99.90
37528;DHT22;23372;52.050;4.810;2023-03-31T09:47:05;12.70;99.90
37528;DHT22;23372;52.050;4.810;2023-03-31T09:49:36;12.80;99.90
37528;DHT22;23372;52.050;4.810;2023-03-31T09:54:43;12.80;99.90
37528;DHT22;23372;52.050;4.810;2023-03-31T09:57:14;12.70;99.90
37528;DHT22;23372;52.050;4.810;2023-03-31T09:59:40;12.80;99.90
37528;DHT22;23372;52.050;4.810;2023-03-31T10:02:35;12.70;99.90
37528;DHT22;23372;52.050;4.810;2023-03-31T10:05:03;12.50;99.90
37528;DHT22;23372;52.050;4.810;2023-03-31T10:07:33;12.50;99.90
37528;DHT22;23372;52.050;4.810;2023-03-31T10:09:59;12.60;99.90
37528;DHT22;23372;52.050;4.810;2023-03-31T10:12:28;12.80;99.90
37528;DHT22;23372;52.050;4.810;2023-03-31T10:15:11;12.90;99.90
37528;DHT22;23372;52.050;4.810;2023-03-31T10:17:40;13.00;99.90
37528;DHT22;23372;52.050;4.810;2023-03-31T10:20:38;13.00;99.90
37528;DHT22;23372;52.050;4.810;2023-03-31T10:23:27;12.90;99.90
37528;DHT22;23372;52.050;4.810;2023-03-31T10:25:53;12.90;99.90
37528;DHT22;23372;52.050;4.810;2023-03-31T10:28:20;12.90;99.90
37528;DHT22;23372;52.050;4.810;2023-03-31T10:30:50;12.90;99.90
37528;DHT22;23372;52.050;4.810;2023-03-31T10:33:30;12.80;99.90
37528;DHT22;23372;52.050;4.810;2023-03-31T10:36:06;12.60;99.90
37528;DHT22;23372;52.050;4.810;2023-03-31T10:38:38;12.50;99.90
37528;DHT22;23372;52.050;4.810;2023-03-31T10:41:09;12.40;99.90
37528;DHT22;23372;52.050;4.810;2023-03-31T10:43:46;12.30;99.90
37528;DHT22;23372;52.050;4.810;2023-03-31T10:46:13;12.10;99.90
37528;DHT22;23372;52.050;4.810;2023-03-31T10:48:40;12.10;99.90
37528;DHT22;23372;52.050;4.810;2023-03-31T10:51:16;12.10;99.90
37528;DHT22;23372;52.050;4.810;2023-03-31T10:53:50;12.10;99.90
37528;DHT22;23372;52.050;4.810;2023-03-31T11:12:18;12.50;99.90
37528;DHT22;23372;52.050;4.810;2023-03-31T11:26:45;12.50;99.90
37528;DHT22;23372;52.050;4.810;2023-03-31T11:29:34;12.60;99.90
37528;DHT22;23372;52.050;4.810;2023-03-31T11:40:38;12.50;99.90
37528;DHT22;23372;52.050;4.810;2023-03-31T11:46:11;12.60;99.90
37528;DHT22;23372;52.050;4.810;2023-03-31T11:48:56;12.60;99.90
37528;DHT22;23372;52.050;4.810;2023-03-31T11:53:56;12.50;99.90
37528;DHT22;23372;52.050;4.810;2023-03-31T11:56:26;12.50;99.90
37528;DHT22;23372;52.050;4.810;2023-03-31T11:58:57;12.40;99.90
37528;DHT22;23372;52.050;4.810;2023-03-31T12:01:31;12.30;99.90
37528;DHT22;23372;52.050;4.810;2023-03-31T12:04:05;12.50;99.90
37528;DHT22;23372;52.050;4.810;2023-03-31T12:06:39;12.60;99.90
37528;DHT22;23372;52.050;4.810;2023-03-31T12:11:49;12.50;99.90
37528;DHT22;23372;52.050;4.810;2023-03-31T12:14:32;12.60;99.90
37528;DHT22;23372;52.050;4.810;2023-03-31T12:17:01;12.50;99.90
37528;DHT22;23372;52.050;4.810;2023-03-31T12:22:33;12.40;99.90
37528;DHT22;23372;52.050;4.810;2023-03-31T12:25:00;12.10;99.90
37528;DHT22;23372;52.050;4.810;2023-03-31T12:32:42;12.40;99.90
37528;DHT22;23372;52.050;4.810;2023-03-31T12:35:26;12.50;99.90
37528;DHT22;23372;52.050;4.810;2023-03-31T12:40:54;12.30;99.90
37528;DHT22;23372;52.050;4.810;2023-03-31T12:46:47;12.00;99.90
37528;DHT22;23372;52.050;4.810;2023-03-31T12:50:13;11.80;99.90
37528;DHT22;23372;52.050;4.810;2023-03-31T12:52:24;11.90;99.90
37528;DHT22;23372;52.050;4.810;2023-03-31T12:55:01;12.00;99.90
37528;DHT22;23372;52.050;4.810;2023-03-31T12:57:29;12.20;99.90
37528;DHT22;23372;52.050;4.810;2023-03-31T13:02:40;12.50;99.90
37528;DHT22;23372;52.050;4.810;2023-03-31T13:08:07;12.30;99.90
37528;DHT22;23372;52.050;4.810;2023-03-31T13:10:55;12.20;99.90
37528;DHT22;23372;52.050;4.810;2023-03-31T13:13:21;12.30;99.90
37528;DHT22;23372;52.050;4.810;2023-03-31T13:15:52;12.40;99.90
37528;DHT22;23372;52.050;4.810;2023-03-31T13:18:20;12.60;99.90
37528;DHT22;23372;52.050;4.810;2023-03-31T13:20:46;12.60;99.90
37528;DHT22;23372;52.050;4.810;2023-03-31T13:23:20;12.60;99.90
37528;DHT22;23372;52.050;4.810;2023-03-31T13:25:51;12.50;99.90
37528;DHT22;23372;52.050;4.810;2023-03-31T13:33:22;12.20;99.90
37528;DHT22;23372;52.050;4.810;2023-03-31T13:42:36;12.10;99.90
37528;DHT22;23372;52.050;4.810;2023-03-31T13:50:47;12.10;99.90
37528;DHT22;23372;52.050;4.810;2023-03-31T13:53:38;12.30;99.90
37528;DHT22;23372;52.050;4.810;2023-03-31T13:59:25;12.20;99.90
37528;DHT22;23372;52.050;4.810;2023-03-31T14:07:46;11.80;99.90
37528;DHT22;23372;52.050;4.810;2023-03-31T14:10:35;11.80;99.90
37528;DHT22;23372;52.050;4.810;2023-03-31T14:13:12;11.80;99.90
37528;DHT22;23372;52.050;4.810;2023-03-31T14:15:42;11.80;99.90
37528;DHT22;23372;52.050;4.810;2023-03-31T14:18:13;11.80;99.90
37528;DHT22;23372;52.050;4.810;2023-03-31T14:21:33;11.70;99.90
37528;DHT22;23372;52.050;4.810;2023-03-31T14:23:39;11.80;99.90
37528;DHT22;23372;52.050;4.810;2023-03-31T14:29:03;11.90;99.90
37528;DHT22;23372;52.050;4.810;2023-03-31T14:35:02;11.90;99.90
37528;DHT22;23372;52.050;4.810;2023-03-31T14:37:22;11.80;99.90
37528;DHT22;23372;52.050;4.810;2023-03-31T14:39:53;11.70;99.90
37528;DHT22;23372;52.050;4.810;2023-03-31T14:42:28;11.50;99.90
37528;DHT22;23372;52.050;4.810;2023-03-31T14:44:56;11.60;99.90
37528;DHT22;23372;52.050;4.810;2023-03-31T14:47:24;11.50;99.90
37528;DHT22;23372;52.050;4.810;2023-03-31T14:50:12;11.60;99.90
37528;DHT22;23372;52.050;4.810;2023-03-31T14:52:39;11.60;99.90
37528;DHT22;23372;52.050;4.810;2023-03-31T14:55:05;11.50;99.90
37528;DHT22;23372;52.050;4.810;2023-03-31T14:57:39;11.40;99.90
37528;DHT22;23372;52.050;4.810;2023-03-31T15:00:07;11.40;99.90
37528;DHT22;23372;52.050;4.810;2023-03-31T15:02:40;11.40;99.90
37528;DHT22;23372;52.050;4.810;2023-03-31T15:05:27;11.40;99.90
37528;DHT22;23372;52.050;4.810;2023-03-31T15:07:58;11.40;99.90
37528;DHT22;23372;52.050;4.810;2023-03-31T15:10:35;11.40;99.90
37528;DHT22;23372;52.050;4.810;2023-03-31T15:13:17;11.40;99.90
37528;DHT22;23372;52.050;4.810;2023-03-31T15:15:43;11.40;99.90
37528;DHT22;23372;52.050;4.810;2023-03-31T15:18:15;11.40;99.90
37528;DHT22;23372;52.050;4.810;2023-03-31T15:20:43;11.30;99.90
37528;DHT22;23372;52.050;4.810;2023-03-31T15:26:03;11.20;99.90
37528;DHT22;23372;52.050;4.810;2023-03-31T15:28:38;11.20;99.90
37528;DHT22;23372;52.050;4.810;2023-03-31T15:31:06;11.10;99.90
37528;DHT22;23372;52.050;4.810;2023-03-31T15:33:33;11.10;99.90
37528;DHT22;23372;52.050;4.810;2023-03-31T15:36:01;11.00;99.90
37528;DHT22;23372;52.050;4.810;2023-03-31T15:38:28;11.10;99.90
37528;DHT22;23372;52.050;4.810;2023-03-31T15:40:56;11.10;99.90
37528;DHT22;23372;52.050;4.810;2023-03-31T15:43:32;11.10;99.90
37528;DHT22;23372;52.050;4.810;2023-03-31T15:46:10;11.10;99.90
37528;DHT22;23372;52.050;4.810;2023-03-31T15:48:51;11.10;99.90
37528;DHT22;23372;52.050;4.810;2023-03-31T15:51:29;11.10;99.90
37528;DHT22;23372;52.050;4.810;2023-03-31T15:53:57;11.10;99.90
37528;DHT22;23372;52.050;4.810;2023-03-31T15:56:43;11.20;99.90
37528;DHT22;23372;52.050;4.810;2023-03-31T15:59:25;11.30;99.90
37528;DHT22;23372;52.050;4.810;2023-03-31T16:01:53;11.40;99.90
37528;DHT22;23372;52.050;4.810;2023-03-31T16:04:19;11.40;99.90
37528;DHT22;23372;52.050;4.810;2023-03-31T16:06:52;11.30;99.90
37528;DHT22;23372;52.050;4.810;2023-03-31T16:14:54;11.10;99.90
37528;DHT22;23372;52.050;4.810;2023-03-31T16:17:37;11.10;99.90
37528;DHT22;23372;52.050;4.810;2023-03-31T16:20:10;11.10;99.90
37528;DHT22;23372;52.050;4.810;2023-03-31T16:22:44;11.10;99.90
37528;DHT22;23372;52.050;4.810;2023-03-31T16:25:13;11.10;99.90
37528;DHT22;23372;52.050;4.810;2023-03-31T16:27:47;11.00;99.90
37528;DHT22;23372;52.050;4.810;2023-03-31T16:30:18;11.00;99.90
37528;DHT22;23372;52.050;4.810;2023-03-31T16:33:18;10.90;99.90
37528;DHT22;23372;52.050;4.810;2023-03-31T16:35:46;10.90;99.90
37528;DHT22;23372;52.050;4.810;2023-03-31T16:38:21;10.90;99.90
37528;DHT22;23372;52.050;4.810;2023-03-31T16:40:48;10.90;99.90
37528;DHT22;23372;52.050;4.810;2023-03-31T16:45:49;10.80;99.90
37528;DHT22;23372;52.050;4.810;2023-03-31T16:48:16;10.80;99.90
37528;DHT22;23372;52.050;4.810;2023-03-31T16:50:44;10.80;99.90
37528;DHT22;23372;52.050;4.810;2023-03-31T16:53:12;10.80;99.90
37528;DHT22;23372;52.050;4.810;2023-03-31T16:55:38;10.80;99.90
37528;DHT22;23372;52.050;4.810;2023-03-31T16:58:03;10.80;99.90
37528;DHT22;23372;52.050;4.810;2023-03-31T17:00:30;10.80;99.90
37528;DHT22;23372;52.050;4.810;2023-03-31T17:02:57;10.80;99.90
37528;DHT22;23372;52.050;4.810;2023-03-31T17:05:23;10.70;99.90
37528;DHT22;23372;52.050;4.810;2023-03-31T17:07:50;10.70;99.90
37528;DHT22;23372;52.050;4.810;2023-03-31T17:10:15;10.80;99.90
37528;DHT22;23372;52.050;4.810;2023-03-31T17:12:41;10.80;99.90
37528;DHT22;23372;52.050;4.810;2023-03-31T17:15:07;10.80;99.90
37528;DHT22;23372;52.050;4.810;2023-03-31T17:17:33;10.80;99.90
37528;DHT22;23372;52.050;4.810;2023-03-31T17:19:59;10.70;99.90
37528;DHT22;23372;52.050;4.810;2023-03-31T17:22:25;10.70;99.90
37528;DHT22;23372;52.050;4.810;2023-03-31T17:24:50;10.70;99.90
37528;DHT22;23372;52.050;4.810;2023-03-31T17:27:26;10.70;99.90
37528;DHT22;23372;52.050;4.810;2023-03-31T17:29:52;10.60;99.90
37528;DHT22;23372;52.050;4.810;2023-03-31T17:32:18;10.70;99.90
37528;DHT22;23372;52.050;4.810;2023-03-31T17:34:44;10.60;99.90
37528;DHT22;23372;52.050;4.810;2023-03-31T17:37:12;10.60;99.90
37528;DHT22;23372;52.050;4.810;2023-03-31T17:39:37;10.70;99.90
37528;DHT22;23372;52.050;4.810;2023-03-31T17:42:03;10.70;99.90
37528;DHT22;23372;52.050;4.810;2023-03-31T17:44:29;10.70;99.90
37528;DHT22;23372;52.050;4.810;2023-03-31T17:46:54;10.70;99.90
37528;DHT22;23372;52.050;4.810;2023-03-31T17:49:20;10.70;99.90
37528;DHT22;23372;52.050;4.810;2023-03-31T17:51:46;10.70;99.90
37528;DHT22;23372;52.050;4.810;2023-03-31T17:54:11;10.70;99.90
37528;DHT22;23372;52.050;4.810;2023-03-31T17:56:37;10.70;99.90
37528;DHT22;23372;52.050;4.810;2023-03-31T17:59:03;10.70;99.90
37528;DHT22;23372;52.050;4.810;2023-03-31T18:01:29;10.60;99.90
37528;DHT22;23372;52.050;4.810;2023-03-31T18:03:56;10.70;99.90
37528;DHT22;23372;52.050;4.810;2023-03-31T18:06:22;10.70;99.90
37528;DHT22;23372;52.050;4.810;2023-03-31T18:08:48;10.70;99.90
37528;DHT22;23372;52.050;4.810;2023-03-31T18:11:13;10.70;99.90
37528;DHT22;23372;52.050;4.810;2023-03-31T18:13:39;10.60;99.90
37528;DHT22;23372;52.050;4.810;2023-03-31T18:16:06;10.70;99.90
37528;DHT22;23372;52.050;4.810;2023-03-31T18:18:37;10.60;99.90
37528;DHT22;23372;52.050;4.810;2023-03-31T18:21:04;10.60;99.90
37528;DHT22;23372;52.050;4.810;2023-03-31T18:23:30;10.60;99.90
37528;DHT22;23372;52.050;4.810;2023-03-31T18:25:56;10.60;99.90
37528;DHT22;23372;52.050;4.810;2023-03-31T18:28:22;10.70;99.90
37528;DHT22;23372;52.050;4.810;2023-03-31T18:30:47;10.60;99.90
37528;DHT22;23372;52.050;4.810;2023-03-31T18:33:13;10.60;99.90
37528;DHT22;23372;52.050;4.810;2023-03-31T18:35:39;10.60;99.90
37528;DHT22;23372;52.050;4.810;2023-03-31T18:38:04;10.60;99.90
37528;DHT22;23372;52.050;4.810;2023-03-31T18:40:30;10.60;99.90